sensor_id;sensor_type;location;lat;lon;timestamp;P1;durP1;ratioP1;P2;durP2;ratioP2
11439;SDS011;5776;51.814;4.510;2022-08-19T00:01:42;8.15;;;5.25;;
11439;SDS011;5776;51.814;4.510;2022-08-19T00:04:10;5.97;;;4.55;;
11439;SDS011;5776;51.814;4.510;2022-08-19T00:06:39;7.75;;;4.95;;
11439;SDS011;5776;51.814;4.510;2022-08-19T00:09:08;6.38;;;4.47;;
11439;SDS011;5776;51.814;4.510;2022-08-19T00:11:37;4.70;;;3.88;;
11439;SDS011;5776;51.814;4.510;2022-08-19T00:14:05;7.50;;;4.10;;
11439;SDS011;5776;51.814;4.510;2022-08-19T00:16:32;7.07;;;4.13;;
11439;SDS011;5776;51.814;4.510;2022-08-19T00:18:58;5.07;;;4.20;;
11439;SDS011;5776;51.814;4.510;2022-08-19T00:21:25;3.92;;;3.40;;
11439;SDS011;5776;51.814;4.510;2022-08-19T00:23:55;3.65;;;3.28;;
11439;SDS011;5776;51.814;4.510;2022-08-19T00:26:25;5.57;;;3.95;;
11439;SDS011;5776;51.814;4.510;2022-08-19T00:28:53;6.78;;;4.55;;
11439;SDS011;5776;51.814;4.510;2022-08-19T00:31:20;4.78;;;3.55;;
11439;SDS011;5776;51.814;4.510;2022-08-19T00:33:46;5.55;;;4.45;;
11439;SDS011;5776;51.814;4.510;2022-08-19T00:36:14;9.07;;;5.78;;
11439;SDS011;5776;51.814;4.510;2022-08-19T00:38:40;13.85;;;6.15;;
11439;SDS011;5776;51.814;4.510;2022-08-19T00:41:08;11.40;;;6.38;;
11439;SDS011;5776;51.814;4.510;2022-08-19T00:43:35;15.13;;;6.43;;
11439;SDS011;5776;51.814;4.510;2022-08-19T00:46:01;6.60;;;5.22;;
11439;SDS011;5776;51.814;4.510;2022-08-19T00:48:30;6.45;;;5.10;;
11439;SDS011;5776;51.814;4.510;2022-08-19T00:50:57;11.82;;;6.18;;
11439;SDS011;5776;51.814;4.510;2022-08-19T00:53:24;8.90;;;6.13;;
11439;SDS011;5776;51.814;4.510;2022-08-19T00:55:55;7.22;;;5.63;;
11439;SDS011;5776;51.814;4.510;2022-08-19T00:58:24;7.35;;;5.28;;
11439;SDS011;5776;51.814;4.510;2022-08-19T01:00:54;10.82;;;6.47;;
11439;SDS011;5776;51.814;4.510;2022-08-19T01:03:20;9.85;;;5.78;;
11439;SDS011;5776;51.814;4.510;2022-08-19T01:05:47;8.98;;;5.25;;
11439;SDS011;5776;51.814;4.510;2022-08-19T01:08:15;8.40;;;6.07;;
11439;SDS011;5776;51.814;4.510;2022-08-19T01:10:45;9.90;;;6.45;;
11439;SDS011;5776;51.814;4.510;2022-08-19T01:13:14;10.15;;;7.25;;
11439;SDS011;5776;51.814;4.510;2022-08-19T01:15:44;8.40;;;6.32;;
11439;SDS011;5776;51.814;4.510;2022-08-19T01:18:15;13.52;;;7.00;;
11439;SDS011;5776;51.814;4.510;2022-08-19T01:20:43;13.18;;;8.48;;
11439;SDS011;5776;51.814;4.510;2022-08-19T01:23:10;14.57;;;8.90;;
11439;SDS011;5776;51.814;4.510;2022-08-19T01:25:50;11.43;;;6.28;;
11439;SDS011;5776;51.814;4.510;2022-08-19T01:28:22;9.98;;;7.43;;
11439;SDS011;5776;51.814;4.510;2022-08-19T01:30:51;9.55;;;6.78;;
11439;SDS011;5776;51.814;4.510;2022-08-19T01:33:17;15.57;;;8.60;;
11439;SDS011;5776;51.814;4.510;2022-08-19T01:35:45;10.13;;;8.35;;
11439;SDS011;5776;51.814;4.510;2022-08-19T01:38:22;8.50;;;7.03;;
11439;SDS011;5776;51.814;4.510;2022-08-19T01:40:51;10.98;;;7.93;;
11439;SDS011;5776;51.814;4.510;2022-08-19T01:43:17;14.88;;;9.95;;
11439;SDS011;5776;51.814;4.510;2022-08-19T01:45:44;13.55;;;9.95;;
11439;SDS011;5776;51.814;4.510;2022-08-19T01:48:11;16.50;;;10.55;;
11439;SDS011;5776;51.814;4.510;2022-08-19T01:50:38;11.30;;;8.05;;
11439;SDS011;5776;51.814;4.510;2022-08-19T01:53:06;14.15;;;9.02;;
11439;SDS011;5776;51.814;4.510;2022-08-19T01:55:36;8.45;;;6.97;;
11439;SDS011;5776;51.814;4.510;2022-08-19T01:58:05;9.48;;;6.28;;
11439;SDS011;5776;51.814;4.510;2022-08-19T02:00:37;9.02;;;6.03;;
11439;SDS011;5776;51.814;4.510;2022-08-19T02:03:04;10.77;;;9.07;;
11439;SDS011;5776;51.814;4.510;2022-08-19T02:05:30;7.78;;;5.40;;
11439;SDS011;5776;51.814;4.510;2022-08-19T02:07:56;7.72;;;5.80;;
11439;SDS011;5776;51.814;4.510;2022-08-19T02:10:23;7.35;;;5.22;;
11439;SDS011;5776;51.814;4.510;2022-08-19T02:12:49;6.70;;;4.75;;
11439;SDS011;5776;51.814;4.510;2022-08-19T02:15:16;8.55;;;6.10;;
11439;SDS011;5776;51.814;4.510;2022-08-19T02:17:45;11.93;;;8.90;;
11439;SDS011;5776;51.814;4.510;2022-08-19T02:20:11;14.75;;;11.73;;
11439;SDS011;5776;51.814;4.510;2022-08-19T02:22:38;20.08;;;14.35;;
11439;SDS011;5776;51.814;4.510;2022-08-19T02:25:07;21.17;;;14.93;;
11439;SDS011;5776;51.814;4.510;2022-08-19T02:27:34;19.50;;;14.60;;
11439;SDS011;5776;51.814;4.510;2022-08-19T02:30:00;20.85;;;12.50;;
11439;SDS011;5776;51.814;4.510;2022-08-19T02:32:26;12.80;;;9.60;;
11439;SDS011;5776;51.814;4.510;2022-08-19T02:34:52;19.75;;;13.88;;
11439;SDS011;5776;51.814;4.510;2022-08-19T02:37:18;19.48;;;13.45;;
11439;SDS011;5776;51.814;4.510;2022-08-19T02:40:03;16.83;;;11.93;;
11439;SDS011;5776;51.814;4.510;2022-08-19T02:42:29;16.88;;;12.30;;
11439;SDS011;5776;51.814;4.510;2022-08-19T02:44:56;18.40;;;12.82;;
11439;SDS011;5776;51.814;4.510;2022-08-19T02:47:22;16.90;;;12.15;;
11439;SDS011;5776;51.814;4.510;2022-08-19T02:49:48;23.00;;;16.00;;
11439;SDS011;5776;51.814;4.510;2022-08-19T02:52:15;23.02;;;14.00;;
11439;SDS011;5776;51.814;4.510;2022-08-19T02:54:41;22.67;;;15.48;;
11439;SDS011;5776;51.814;4.510;2022-08-19T02:57:08;16.77;;;12.45;;
11439;SDS011;5776;51.814;4.510;2022-08-19T02:59:34;19.13;;;14.10;;
11439;SDS011;5776;51.814;4.510;2022-08-19T03:02:00;16.45;;;12.57;;
11439;SDS011;5776;51.814;4.510;2022-08-19T03:04:26;15.23;;;10.32;;
11439;SDS011;5776;51.814;4.510;2022-08-19T03:06:52;14.77;;;10.82;;
11439;SDS011;5776;51.814;4.510;2022-08-19T03:09:18;12.95;;;10.70;;
11439;SDS011;5776;51.814;4.510;2022-08-19T03:11:45;23.23;;;15.65;;
11439;SDS011;5776;51.814;4.510;2022-08-19T03:14:12;23.70;;;17.33;;
11439;SDS011;5776;51.814;4.510;2022-08-19T03:16:42;31.63;;;22.13;;
11439;SDS011;5776;51.814;4.510;2022-08-19T03:19:18;22.90;;;17.33;;
11439;SDS011;5776;51.814;4.510;2022-08-19T03:21:46;26.55;;;18.42;;
11439;SDS011;5776;51.814;4.510;2022-08-19T03:24:13;40.85;;;25.73;;
11439;SDS011;5776;51.814;4.510;2022-08-19T03:26:42;39.67;;;27.58;;
11439;SDS011;5776;51.814;4.510;2022-08-19T03:29:10;40.70;;;28.20;;
11439;SDS011;5776;51.814;4.510;2022-08-19T03:31:37;41.47;;;27.55;;
11439;SDS011;5776;51.814;4.510;2022-08-19T03:34:04;44.28;;;28.50;;
11439;SDS011;5776;51.814;4.510;2022-08-19T03:36:30;45.83;;;27.92;;
11439;SDS011;5776;51.814;4.510;2022-08-19T03:38:57;45.40;;;28.95;;
11439;SDS011;5776;51.814;4.510;2022-08-19T03:41:26;50.28;;;31.50;;
11439;SDS011;5776;51.814;4.510;2022-08-19T03:44:02;47.63;;;29.38;;
11439;SDS011;5776;51.814;4.510;2022-08-19T03:46:31;45.90;;;29.95;;
11439;SDS011;5776;51.814;4.510;2022-08-19T03:48:59;45.60;;;29.75;;
11439;SDS011;5776;51.814;4.510;2022-08-19T03:51:31;44.28;;;27.23;;
11439;SDS011;5776;51.814;4.510;2022-08-19T03:54:01;44.92;;;27.92;;
11439;SDS011;5776;51.814;4.510;2022-08-19T03:56:28;42.70;;;26.08;;
11439;SDS011;5776;51.814;4.510;2022-08-19T03:58:55;41.33;;;26.58;;
11439;SDS011;5776;51.814;4.510;2022-08-19T04:01:24;40.75;;;26.10;;
11439;SDS011;5776;51.814;4.510;2022-08-19T04:03:57;43.03;;;26.13;;
11439;SDS011;5776;51.814;4.510;2022-08-19T04:06:34;42.58;;;26.20;;
11439;SDS011;5776;51.814;4.510;2022-08-19T04:09:03;30.30;;;20.38;;
11439;SDS011;5776;51.814;4.510;2022-08-19T04:11:40;31.65;;;22.02;;
11439;SDS011;5776;51.814;4.510;2022-08-19T04:14:09;39.15;;;24.80;;
11439;SDS011;5776;51.814;4.510;2022-08-19T04:16:37;32.03;;;21.95;;
11439;SDS011;5776;51.814;4.510;2022-08-19T04:19:03;30.50;;;20.40;;
11439;SDS011;5776;51.814;4.510;2022-08-19T04:21:30;30.30;;;18.13;;
11439;SDS011;5776;51.814;4.510;2022-08-19T04:23:56;37.75;;;23.85;;
11439;SDS011;5776;51.814;4.510;2022-08-19T04:26:24;37.78;;;21.88;;
11439;SDS011;5776;51.814;4.510;2022-08-19T04:28:52;32.83;;;21.10;;
11439;SDS011;5776;51.814;4.510;2022-08-19T04:31:20;37.70;;;21.27;;
11439;SDS011;5776;51.814;4.510;2022-08-19T04:33:48;34.10;;;21.38;;
11439;SDS011;5776;51.814;4.510;2022-08-19T04:36:17;32.53;;;18.85;;
11439;SDS011;5776;51.814;4.510;2022-08-19T04:38:49;28.90;;;17.50;;
11439;SDS011;5776;51.814;4.510;2022-08-19T04:41:18;34.50;;;19.75;;
11439;SDS011;5776;51.814;4.510;2022-08-19T04:44:03;29.40;;;16.80;;
11439;SDS011;5776;51.814;4.510;2022-08-19T04:46:29;35.25;;;19.42;;
11439;SDS011;5776;51.814;4.510;2022-08-19T04:48:58;35.38;;;20.13;;
11439;SDS011;5776;51.814;4.510;2022-08-19T04:51:25;25.10;;;14.77;;
11439;SDS011;5776;51.814;4.510;2022-08-19T04:53:51;38.70;;;21.92;;
11439;SDS011;5776;51.814;4.510;2022-08-19T04:56:18;33.53;;;18.50;;
11439;SDS011;5776;51.814;4.510;2022-08-19T04:58:48;40.22;;;21.13;;
11439;SDS011;5776;51.814;4.510;2022-08-19T05:01:18;40.47;;;21.02;;
11439;SDS011;5776;51.814;4.510;2022-08-19T05:03:48;42.53;;;21.50;;
11439;SDS011;5776;51.814;4.510;2022-08-19T05:06:15;38.97;;;21.17;;
11439;SDS011;5776;51.814;4.510;2022-08-19T05:08:43;36.17;;;20.88;;
11439;SDS011;5776;51.814;4.510;2022-08-19T05:11:11;36.25;;;21.23;;
11439;SDS011;5776;51.814;4.510;2022-08-19T05:13:40;32.45;;;19.50;;
11439;SDS011;5776;51.814;4.510;2022-08-19T05:16:06;44.13;;;21.70;;
11439;SDS011;5776;51.814;4.510;2022-08-19T05:18:32;41.20;;;19.85;;
11439;SDS011;5776;51.814;4.510;2022-08-19T05:21:17;32.30;;;18.05;;
11439;SDS011;5776;51.814;4.510;2022-08-19T05:24:04;32.33;;;18.83;;
11439;SDS011;5776;51.814;4.510;2022-08-19T05:26:38;31.23;;;19.17;;
11439;SDS011;5776;51.814;4.510;2022-08-19T05:29:06;33.78;;;20.48;;
11439;SDS011;5776;51.814;4.510;2022-08-19T05:31:34;33.78;;;19.35;;
11439;SDS011;5776;51.814;4.510;2022-08-19T05:34:01;30.92;;;18.05;;
11439;SDS011;5776;51.814;4.510;2022-08-19T05:36:32;33.00;;;18.98;;
11439;SDS011;5776;51.814;4.510;2022-08-19T05:39:05;38.13;;;19.20;;
11439;SDS011;5776;51.814;4.510;2022-08-19T05:41:32;25.38;;;17.73;;
11439;SDS011;5776;51.814;4.510;2022-08-19T05:43:58;31.38;;;17.70;;
11439;SDS011;5776;51.814;4.510;2022-08-19T05:46:28;39.22;;;18.83;;
11439;SDS011;5776;51.814;4.510;2022-08-19T05:48:54;25.77;;;15.88;;
11439;SDS011;5776;51.814;4.510;2022-08-19T05:51:22;36.58;;;20.50;;
11439;SDS011;5776;51.814;4.510;2022-08-19T05:53:49;35.30;;;17.25;;
11439;SDS011;5776;51.814;4.510;2022-08-19T05:56:16;30.38;;;17.30;;
11439;SDS011;5776;51.814;4.510;2022-08-19T05:58:43;34.72;;;20.27;;
11439;SDS011;5776;51.814;4.510;2022-08-19T06:01:11;31.85;;;17.45;;
11439;SDS011;5776;51.814;4.510;2022-08-19T06:03:39;31.80;;;19.02;;
11439;SDS011;5776;51.814;4.510;2022-08-19T06:06:06;35.03;;;16.50;;
11439;SDS011;5776;51.814;4.510;2022-08-19T06:08:34;34.03;;;16.85;;
11439;SDS011;5776;51.814;4.510;2022-08-19T06:11:20;31.80;;;18.13;;
11439;SDS011;5776;51.814;4.510;2022-08-19T06:13:51;36.83;;;19.42;;
11439;SDS011;5776;51.814;4.510;2022-08-19T06:16:19;33.67;;;18.33;;
11439;SDS011;5776;51.814;4.510;2022-08-19T06:18:49;40.28;;;20.00;;
11439;SDS011;5776;51.814;4.510;2022-08-19T06:21:20;36.78;;;19.15;;
11439;SDS011;5776;51.814;4.510;2022-08-19T06:23:48;31.45;;;16.75;;
11439;SDS011;5776;51.814;4.510;2022-08-19T06:26:16;31.95;;;16.90;;
11439;SDS011;5776;51.814;4.510;2022-08-19T06:28:44;34.58;;;18.48;;
11439;SDS011;5776;51.814;4.510;2022-08-19T06:31:14;31.17;;;17.98;;
11439;SDS011;5776;51.814;4.510;2022-08-19T06:33:42;32.13;;;18.40;;
11439;SDS011;5776;51.814;4.510;2022-08-19T06:38:55;32.00;;;18.23;;
11439;SDS011;5776;51.814;4.510;2022-08-19T06:41:23;40.75;;;19.30;;
11439;SDS011;5776;51.814;4.510;2022-08-19T06:43:50;34.72;;;18.63;;
11439;SDS011;5776;51.814;4.510;2022-08-19T06:46:17;39.63;;;19.08;;
11439;SDS011;5776;51.814;4.510;2022-08-19T06:48:44;22.17;;;12.80;;
11439;SDS011;5776;51.814;4.510;2022-08-19T06:51:10;34.45;;;17.13;;
11439;SDS011;5776;51.814;4.510;2022-08-19T06:53:36;30.27;;;17.27;;
11439;SDS011;5776;51.814;4.510;2022-08-19T06:56:04;32.10;;;17.38;;
11439;SDS011;5776;51.814;4.510;2022-08-19T06:58:30;28.63;;;17.17;;
11439;SDS011;5776;51.814;4.510;2022-08-19T07:01:01;35.83;;;17.02;;
11439;SDS011;5776;51.814;4.510;2022-08-19T07:03:29;26.83;;;16.70;;
11439;SDS011;5776;51.814;4.510;2022-08-19T07:05:57;36.40;;;17.65;;
11439;SDS011;5776;51.814;4.510;2022-08-19T07:08:24;33.22;;;15.82;;
11439;SDS011;5776;51.814;4.510;2022-08-19T07:10:52;22.98;;;12.90;;
11439;SDS011;5776;51.814;4.510;2022-08-19T07:13:19;33.00;;;17.35;;
11439;SDS011;5776;51.814;4.510;2022-08-19T07:15:45;28.70;;;15.88;;
11439;SDS011;5776;51.814;4.510;2022-08-19T07:18:12;33.53;;;17.17;;
11439;SDS011;5776;51.814;4.510;2022-08-19T07:20:38;29.70;;;16.05;;
11439;SDS011;5776;51.814;4.510;2022-08-19T07:23:05;29.55;;;15.25;;
11439;SDS011;5776;51.814;4.510;2022-08-19T07:25:31;29.80;;;15.93;;
11439;SDS011;5776;51.814;4.510;2022-08-19T07:27:56;33.95;;;16.52;;
11439;SDS011;5776;51.814;4.510;2022-08-19T07:30:22;33.72;;;16.48;;
11439;SDS011;5776;51.814;4.510;2022-08-19T07:32:49;38.03;;;15.85;;
11439;SDS011;5776;51.814;4.510;2022-08-19T07:35:17;24.85;;;13.48;;
11439;SDS011;5776;51.814;4.510;2022-08-19T07:37:45;29.50;;;15.57;;
11439;SDS011;5776;51.814;4.510;2022-08-19T07:40:11;26.83;;;15.48;;
11439;SDS011;5776;51.814;4.510;2022-08-19T07:42:37;28.55;;;15.25;;
11439;SDS011;5776;51.814;4.510;2022-08-19T07:45:04;29.67;;;15.45;;
11439;SDS011;5776;51.814;4.510;2022-08-19T07:47:31;27.55;;;15.43;;
11439;SDS011;5776;51.814;4.510;2022-08-19T07:49:57;28.23;;;14.57;;
11439;SDS011;5776;51.814;4.510;2022-08-19T07:52:23;26.80;;;13.85;;
11439;SDS011;5776;51.814;4.510;2022-08-19T07:54:49;23.15;;;15.20;;
11439;SDS011;5776;51.814;4.510;2022-08-19T07:57:17;28.08;;;14.57;;
11439;SDS011;5776;51.814;4.510;2022-08-19T07:59:44;21.83;;;14.85;;
11439;SDS011;5776;51.814;4.510;2022-08-19T08:02:10;23.67;;;14.65;;
11439;SDS011;5776;51.814;4.510;2022-08-19T08:04:36;29.05;;;14.10;;
11439;SDS011;5776;51.814;4.510;2022-08-19T08:07:20;23.60;;;14.23;;
11439;SDS011;5776;51.814;4.510;2022-08-19T08:10:06;21.50;;;12.35;;
11439;SDS011;5776;51.814;4.510;2022-08-19T08:12:35;24.52;;;12.55;;
11439;SDS011;5776;51.814;4.510;2022-08-19T08:15:10;21.05;;;12.23;;
11439;SDS011;5776;51.814;4.510;2022-08-19T08:17:42;19.60;;;13.15;;
11439;SDS011;5776;51.814;4.510;2022-08-19T08:20:09;23.40;;;12.68;;
11439;SDS011;5776;51.814;4.510;2022-08-19T08:22:35;27.45;;;12.70;;
11439;SDS011;5776;51.814;4.510;2022-08-19T08:25:21;22.00;;;11.73;;
11439;SDS011;5776;51.814;4.510;2022-08-19T08:27:50;19.17;;;11.55;;
11439;SDS011;5776;51.814;4.510;2022-08-19T08:30:17;25.25;;;12.65;;
11439;SDS011;5776;51.814;4.510;2022-08-19T08:32:50;25.15;;;12.93;;
11439;SDS011;5776;51.814;4.510;2022-08-19T08:35:18;21.40;;;11.27;;
11439;SDS011;5776;51.814;4.510;2022-08-19T08:37:48;20.63;;;11.38;;
11439;SDS011;5776;51.814;4.510;2022-08-19T08:43:29;16.88;;;9.38;;
11439;SDS011;5776;51.814;4.510;2022-08-19T08:45:59;20.60;;;10.82;;
11439;SDS011;5776;51.814;4.510;2022-08-19T08:51:16;18.73;;;11.30;;
11439;SDS011;5776;51.814;4.510;2022-08-19T08:53:48;26.38;;;10.80;;
11439;SDS011;5776;51.814;4.510;2022-08-19T08:56:16;17.60;;;9.85;;
11439;SDS011;5776;51.814;4.510;2022-08-19T08:58:54;18.33;;;9.40;;
11439;SDS011;5776;51.814;4.510;2022-08-19T09:01:24;11.98;;;7.28;;
11439;SDS011;5776;51.814;4.510;2022-08-19T09:03:51;13.77;;;9.18;;
11439;SDS011;5776;51.814;4.510;2022-08-19T09:09:16;20.00;;;11.20;;
11439;SDS011;5776;51.814;4.510;2022-08-19T09:14:34;20.90;;;10.40;;
11439;SDS011;5776;51.814;4.510;2022-08-19T09:17:01;18.30;;;10.07;;
11439;SDS011;5776;51.814;4.510;2022-08-19T09:19:34;15.93;;;10.00;;
11439;SDS011;5776;51.814;4.510;2022-08-19T09:22:12;16.40;;;8.82;;
11439;SDS011;5776;51.814;4.510;2022-08-19T09:24:38;14.70;;;9.15;;
11439;SDS011;5776;51.814;4.510;2022-08-19T09:27:04;15.10;;;9.02;;
11439;SDS011;5776;51.814;4.510;2022-08-19T09:29:30;18.95;;;9.05;;
11439;SDS011;5776;51.814;4.510;2022-08-19T09:31:56;16.00;;;8.18;;
11439;SDS011;5776;51.814;4.510;2022-08-19T09:34:22;14.52;;;6.63;;
11439;SDS011;5776;51.814;4.510;2022-08-19T09:36:49;15.98;;;7.07;;
11439;SDS011;5776;51.814;4.510;2022-08-19T09:39:18;11.98;;;7.35;;
11439;SDS011;5776;51.814;4.510;2022-08-19T09:41:44;10.88;;;7.50;;
11439;SDS011;5776;51.814;4.510;2022-08-19T09:44:10;17.65;;;8.32;;
11439;SDS011;5776;51.814;4.510;2022-08-19T09:46:38;10.73;;;5.95;;
11439;SDS011;5776;51.814;4.510;2022-08-19T09:49:04;8.60;;;5.50;;
11439;SDS011;5776;51.814;4.510;2022-08-19T09:51:32;12.48;;;5.00;;
11439;SDS011;5776;51.814;4.510;2022-08-19T09:53:59;9.80;;;5.40;;
11439;SDS011;5776;51.814;4.510;2022-08-19T09:56:27;10.55;;;4.95;;
11439;SDS011;5776;51.814;4.510;2022-08-19T09:58:54;9.38;;;4.50;;
11439;SDS011;5776;51.814;4.510;2022-08-19T10:01:24;6.85;;;4.88;;
11439;SDS011;5776;51.814;4.510;2022-08-19T10:03:53;8.35;;;4.45;;
11439;SDS011;5776;51.814;4.510;2022-08-19T10:06:20;9.57;;;5.00;;
11439;SDS011;5776;51.814;4.510;2022-08-19T10:08:48;6.30;;;3.30;;
11439;SDS011;5776;51.814;4.510;2022-08-19T10:11:15;7.68;;;3.42;;
11439;SDS011;5776;51.814;4.510;2022-08-19T10:13:43;6.55;;;2.92;;
11439;SDS011;5776;51.814;4.510;2022-08-19T10:16:11;7.90;;;3.28;;
11439;SDS011;5776;51.814;4.510;2022-08-19T10:18:39;5.75;;;3.45;;
11439;SDS011;5776;51.814;4.510;2022-08-19T10:23:37;6.07;;;2.83;;
11439;SDS011;5776;51.814;4.510;2022-08-19T10:26:06;7.45;;;2.75;;
11439;SDS011;5776;51.814;4.510;2022-08-19T10:28:33;7.40;;;3.65;;
11439;SDS011;5776;51.814;4.510;2022-08-19T10:31:03;6.18;;;4.18;;
11439;SDS011;5776;51.814;4.510;2022-08-19T10:33:37;6.30;;;3.33;;
11439;SDS011;5776;51.814;4.510;2022-08-19T10:36:05;6.50;;;3.78;;
11439;SDS011;5776;51.814;4.510;2022-08-19T10:38:37;10.00;;;5.78;;
11439;SDS011;5776;51.814;4.510;2022-08-19T10:41:13;10.75;;;5.47;;
11439;SDS011;5776;51.814;4.510;2022-08-19T10:43:41;9.95;;;6.10;;
11439;SDS011;5776;51.814;4.510;2022-08-19T10:46:08;11.98;;;6.70;;
11439;SDS011;5776;51.814;4.510;2022-08-19T10:48:35;9.73;;;6.50;;
11439;SDS011;5776;51.814;4.510;2022-08-19T10:51:01;14.20;;;6.93;;
11439;SDS011;5776;51.814;4.510;2022-08-19T10:53:48;13.30;;;7.93;;
11439;SDS011;5776;51.814;4.510;2022-08-19T10:56:14;10.05;;;7.30;;
11439;SDS011;5776;51.814;4.510;2022-08-19T10:58:59;9.80;;;6.22;;
11439;SDS011;5776;51.814;4.510;2022-08-19T11:01:26;9.18;;;6.30;;
11439;SDS011;5776;51.814;4.510;2022-08-19T11:03:52;10.18;;;7.18;;
11439;SDS011;5776;51.814;4.510;2022-08-19T11:06:18;12.15;;;8.05;;
11439;SDS011;5776;51.814;4.510;2022-08-19T11:08:45;12.40;;;8.63;;
11439;SDS011;5776;51.814;4.510;2022-08-19T11:11:12;12.88;;;8.20;;
11439;SDS011;5776;51.814;4.510;2022-08-19T11:13:38;15.73;;;10.20;;
11439;SDS011;5776;51.814;4.510;2022-08-19T11:16:08;11.90;;;8.80;;
11439;SDS011;5776;51.814;4.510;2022-08-19T11:18:37;15.20;;;8.70;;
11439;SDS011;5776;51.814;4.510;2022-08-19T11:21:10;18.75;;;10.50;;
11439;SDS011;5776;51.814;4.510;2022-08-19T11:23:42;14.63;;;10.13;;
11439;SDS011;5776;51.814;4.510;2022-08-19T11:26:09;13.63;;;9.35;;
11439;SDS011;5776;51.814;4.510;2022-08-19T11:28:35;14.20;;;9.65;;
11439;SDS011;5776;51.814;4.510;2022-08-19T11:31:02;14.25;;;9.70;;
11439;SDS011;5776;51.814;4.510;2022-08-19T11:33:29;12.23;;;8.23;;
11439;SDS011;5776;51.814;4.510;2022-08-19T11:35:57;15.52;;;8.30;;
11439;SDS011;5776;51.814;4.510;2022-08-19T11:38:25;9.20;;;7.78;;
11439;SDS011;5776;51.814;4.510;2022-08-19T11:40:58;11.90;;;8.05;;
11439;SDS011;5776;51.814;4.510;2022-08-19T11:43:24;10.95;;;7.30;;
11439;SDS011;5776;51.814;4.510;2022-08-19T11:45:55;10.85;;;7.03;;
11439;SDS011;5776;51.814;4.510;2022-08-19T11:48:21;11.30;;;8.77;;
11439;SDS011;5776;51.814;4.510;2022-08-19T11:50:48;14.98;;;10.52;;
11439;SDS011;5776;51.814;4.510;2022-08-19T11:53:16;15.70;;;10.80;;
11439;SDS011;5776;51.814;4.510;2022-08-19T11:55:43;13.10;;;10.32;;
11439;SDS011;5776;51.814;4.510;2022-08-19T11:58:11;16.38;;;10.75;;
11439;SDS011;5776;51.814;4.510;2022-08-19T12:00:38;13.93;;;10.60;;
11439;SDS011;5776;51.814;4.510;2022-08-19T12:03:04;13.13;;;9.80;;
11439;SDS011;5776;51.814;4.510;2022-08-19T12:05:31;12.68;;;9.25;;
11439;SDS011;5776;51.814;4.510;2022-08-19T12:07:57;12.02;;;9.63;;
11439;SDS011;5776;51.814;4.510;2022-08-19T12:10:23;13.70;;;9.23;;
11439;SDS011;5776;51.814;4.510;2022-08-19T12:12:49;13.02;;;9.65;;
11439;SDS011;5776;51.814;4.510;2022-08-19T12:15:15;15.55;;;10.57;;
11439;SDS011;5776;51.814;4.510;2022-08-19T12:17:41;14.18;;;11.07;;
11439;SDS011;5776;51.814;4.510;2022-08-19T12:20:08;14.23;;;11.10;;
11439;SDS011;5776;51.814;4.510;2022-08-19T12:22:36;15.60;;;12.00;;
11439;SDS011;5776;51.814;4.510;2022-08-19T12:25:03;19.50;;;10.57;;
11439;SDS011;5776;51.814;4.510;2022-08-19T12:27:30;18.27;;;12.40;;
11439;SDS011;5776;51.814;4.510;2022-08-19T12:29:56;14.15;;;10.93;;
11439;SDS011;5776;51.814;4.510;2022-08-19T12:32:23;17.17;;;10.20;;
11439;SDS011;5776;51.814;4.510;2022-08-19T12:34:50;14.18;;;9.65;;
11439;SDS011;5776;51.814;4.510;2022-08-19T12:37:16;17.42;;;10.27;;
11439;SDS011;5776;51.814;4.510;2022-08-19T12:39:42;22.48;;;10.35;;
11439;SDS011;5776;51.814;4.510;2022-08-19T12:42:09;25.33;;;12.60;;
11439;SDS011;5776;51.814;4.510;2022-08-19T12:44:36;15.52;;;10.25;;
11439;SDS011;5776;51.814;4.510;2022-08-19T12:47:03;29.45;;;10.63;;
11439;SDS011;5776;51.814;4.510;2022-08-19T12:49:30;16.45;;;10.30;;
11439;SDS011;5776;51.814;4.510;2022-08-19T12:51:59;19.15;;;9.43;;
11439;SDS011;5776;51.814;4.510;2022-08-19T12:54:26;13.77;;;8.07;;
11439;SDS011;5776;51.814;4.510;2022-08-19T12:56:53;16.50;;;8.85;;
11439;SDS011;5776;51.814;4.510;2022-08-19T12:59:19;15.23;;;8.85;;
11439;SDS011;5776;51.814;4.510;2022-08-19T13:01:45;16.33;;;8.60;;
11439;SDS011;5776;51.814;4.510;2022-08-19T13:04:11;20.13;;;9.10;;
11439;SDS011;5776;51.814;4.510;2022-08-19T13:06:37;16.15;;;10.18;;
11439;SDS011;5776;51.814;4.510;2022-08-19T13:09:04;15.20;;;8.68;;
11439;SDS011;5776;51.814;4.510;2022-08-19T13:11:30;15.23;;;9.88;;
11439;SDS011;5776;51.814;4.510;2022-08-19T13:13:59;14.43;;;9.00;;
11439;SDS011;5776;51.814;4.510;2022-08-19T13:16:26;12.55;;;7.72;;
11439;SDS011;5776;51.814;4.510;2022-08-19T13:18:53;12.63;;;7.78;;
11439;SDS011;5776;51.814;4.510;2022-08-19T13:21:22;14.98;;;9.48;;
11439;SDS011;5776;51.814;4.510;2022-08-19T13:23:50;18.63;;;10.40;;
11439;SDS011;5776;51.814;4.510;2022-08-19T13:26:17;18.80;;;11.75;;
11439;SDS011;5776;51.814;4.510;2022-08-19T13:28:43;19.67;;;12.02;;
11439;SDS011;5776;51.814;4.510;2022-08-19T13:31:48;16.45;;;10.05;;
11439;SDS011;5776;51.814;4.510;2022-08-19T13:34:33;15.75;;;11.10;;
11439;SDS011;5776;51.814;4.510;2022-08-19T13:37:01;13.80;;;9.30;;
11439;SDS011;5776;51.814;4.510;2022-08-19T13:39:31;11.48;;;8.43;;
11439;SDS011;5776;51.814;4.510;2022-08-19T13:41:58;14.77;;;8.63;;
11439;SDS011;5776;51.814;4.510;2022-08-19T13:44:25;11.43;;;7.05;;
11439;SDS011;5776;51.814;4.510;2022-08-19T13:46:59;8.40;;;6.05;;
11439;SDS011;5776;51.814;4.510;2022-08-19T13:49:31;9.85;;;5.90;;
11439;SDS011;5776;51.814;4.510;2022-08-19T13:51:57;8.40;;;5.53;;
11439;SDS011;5776;51.814;4.510;2022-08-19T13:54:22;7.30;;;4.88;;
11439;SDS011;5776;51.814;4.510;2022-08-19T13:56:48;6.78;;;4.30;;
11439;SDS011;5776;51.814;4.510;2022-08-19T13:59:14;3.25;;;1.80;;
11439;SDS011;5776;51.814;4.510;2022-08-19T14:01:40;3.67;;;2.13;;
11439;SDS011;5776;51.814;4.510;2022-08-19T14:04:07;5.88;;;2.03;;
11439;SDS011;5776;51.814;4.510;2022-08-19T14:06:33;4.82;;;2.17;;
11439;SDS011;5776;51.814;4.510;2022-08-19T14:08:59;3.72;;;2.08;;
11439;SDS011;5776;51.814;4.510;2022-08-19T14:11:27;4.45;;;2.30;;
11439;SDS011;5776;51.814;4.510;2022-08-19T14:13:54;4.10;;;1.85;;
11439;SDS011;5776;51.814;4.510;2022-08-19T14:16:20;4.72;;;2.63;;
11439;SDS011;5776;51.814;4.510;2022-08-19T14:18:47;3.35;;;2.47;;
11439;SDS011;5776;51.814;4.510;2022-08-19T14:21:14;4.32;;;2.65;;
11439;SDS011;5776;51.814;4.510;2022-08-19T14:23:46;6.82;;;3.13;;
11439;SDS011;5776;51.814;4.510;2022-08-19T14:26:14;6.90;;;2.92;;
11439;SDS011;5776;51.814;4.510;2022-08-19T14:28:42;6.75;;;2.97;;
11439;SDS011;5776;51.814;4.510;2022-08-19T14:31:09;4.15;;;2.35;;
11439;SDS011;5776;51.814;4.510;2022-08-19T14:33:36;4.47;;;2.00;;
11439;SDS011;5776;51.814;4.510;2022-08-19T14:36:02;4.53;;;2.00;;
11439;SDS011;5776;51.814;4.510;2022-08-19T14:38:29;5.28;;;2.10;;
11439;SDS011;5776;51.814;4.510;2022-08-19T14:43:43;5.20;;;2.35;;
11439;SDS011;5776;51.814;4.510;2022-08-19T14:46:15;6.32;;;2.40;;
11439;SDS011;5776;51.814;4.510;2022-08-19T14:48:43;7.25;;;3.42;;
11439;SDS011;5776;51.814;4.510;2022-08-19T14:51:09;3.53;;;2.22;;
11439;SDS011;5776;51.814;4.510;2022-08-19T14:53:35;4.30;;;2.35;;
11439;SDS011;5776;51.814;4.510;2022-08-19T14:56:01;2.75;;;2.28;;
11439;SDS011;5776;51.814;4.510;2022-08-19T14:58:34;4.68;;;2.30;;
11439;SDS011;5776;51.814;4.510;2022-08-19T15:01:00;3.35;;;2.20;;
11439;SDS011;5776;51.814;4.510;2022-08-19T15:03:26;3.92;;;1.92;;
11439;SDS011;5776;51.814;4.510;2022-08-19T15:05:54;3.80;;;1.90;;
11439;SDS011;5776;51.814;4.510;2022-08-19T15:08:21;3.47;;;2.10;;
11439;SDS011;5776;51.814;4.510;2022-08-19T15:10:50;2.75;;;1.52;;